Disclaimer

Please do not use the information listed here in-flight or in-navigation, as they are not provided to us by the airports but are provided by volunteers, so they might be outdated.

Search


Regions


Airport information page

Radio informations:
Tower (TWR) - 119.7 MHz
Approach (APP) - 119.7 MHz
INFO - 119.7 MHz

Airport informations:
Latitude: 58° 27' 32.00" N
Longitude: 003° 05' 35.00" W
Elevation: 126 feet - 38 meters
Operating hours: Remarks
Operating agency: Civil government, landing fees and diplomatic clearance may be required
Timezone: UTC 0(+1DT) - Last Sunday in March to last Sunday in October
Fuel: Jet A1, without icing nhibitor.

100/130 MIL Spec, low lead, aviation gasoline (BLUE)

Runway information:
08/26 - 3399 x 148 feet< - >1036 x 45 meters
13/31 - 5988 x 148 feet< - >1825 x 45 meters

Recent METARs:
EGPC 201350Z 10015KT 9999 VCSH FEW010 SCT032 07/01 Q1027
EGPC 201420Z 11018KT 9999 -SHRA FEW010 SCT029 07/02 Q1027
EGPC 201450Z 11016KT 9999 -SHRA FEW025 SCT031 07/02 Q1026

Airport on the map: